Glen Rose, TX (76043)

7:54 PM CDT on August 30, 2016 (GMT -0500)
Opossum Hollow | | Change Station

Elev 771 ft 32.25 °N, 97.83 °W | Updated 10 seconds ago

Scattered Clouds
Scattered Clouds
79.5 °F
Feels Like 84 °F
N
2.0
Wind Variable Wind from NW
Gusts 3.0 mph

Today
High -- | Low -- °F
--% Chance of Precip.
Yesterday
High -- | Low -- °F
Precip. -- in
Pressure 29.99 in
Visibility 10.0 miles
Clouds Scattered Clouds 6000 ft
Scattered Clouds 7000 ft
Scattered Clouds 8500 ft
Heat Index 84 °F
Dew Point 75 °F
Humidity 87%
Rainfall in
Snow Depth Not available.
7:05 AM 7:57 PM
Waning Crescent, 2% visible
METAR KGDJ 310035Z AUTO 00000KT 10SM SCT060 SCT070 SCT085 29/22 A2999 RMK AO2 T02850223
Pressure 29.99 in
Visibility 10.0 miles
Clouds Scattered Clouds 6000 ft
Scattered Clouds 7000 ft
Scattered Clouds 8500 ft
Heat Index 84 °F
Dew Point 75 °F
Humidity 87%
Rainfall in
Snow Depth Not available.
7:05 AM 7:57 PM
Waning Crescent, 2% visible
METAR KGDJ 310035Z AUTO 00000KT 10SM SCT060 SCT070 SCT085 29/22 A2999 RMK AO2 T02850223

10-Day Weather Forecast

Almanac

Astronomy

Aug. 30, 2016 Rise Set
Actual Time
Civil Twilight
Nautical Twilight
Astronomical Twilight
Moon
Length of Visible Light
Length of Day
Tomorrow will be .
, % of the Moon is Illuminated

Today's Extremes

State Highs State Lows

Community

WunderPhotos

Upload Photos

1,935,964 photos uploaded!

WunderBlog® & News

Nearby

Air Quality

  Air Quality AQ Index Pollutant
Not available.

Snow Depth

Station Depth Elevation

Earthquake Activity

City Distance Mag. Time & Date
Minimum magnitude displayed is 2.5.

Coastal Water Temperatures

Place Temperature

Stations

Nearby Weather Stations

Station Location Temp. Windchill Dew Point Humidity Wind Precip. Elev Updated Type
                   

Watches & Warnings

There are currently no watches in effect.